createdAt,value
2023-04-09T00:00:08.667Z,8.15
2023-04-09T00:01:08.671Z,8.26
2023-04-09T00:02:08.772Z,8.25
2023-04-09T00:03:08.857Z,8.17
2023-04-09T00:04:08.891Z,8.21
2023-04-09T00:05:08.707Z,8.20
2023-04-09T00:06:08.610Z,8.26
2023-04-09T00:07:08.978Z,8.30
2023-04-09T00:08:08.677Z,8.14
2023-04-09T00:09:08.662Z,7.85
2023-04-09T00:10:09.156Z,7.96
2023-04-09T00:11:08.678Z,7.82
2023-04-09T00:12:08.631Z,7.79
2023-04-09T00:13:08.787Z,7.71
2023-04-09T00:14:08.708Z,7.72
2023-04-09T00:15:13.044Z,7.84
2023-04-09T00:16:10.628Z,7.89
2023-04-09T00:17:08.561Z,8.00
2023-04-09T00:18:08.512Z,7.99
2023-04-09T00:19:08.675Z,8.03
2023-04-09T00:20:08.510Z,8.04
2023-04-09T00:21:08.715Z,8.11
2023-04-09T00:22:08.616Z,8.21
2023-04-09T00:23:09.008Z,8.15
2023-04-09T00:24:08.596Z,8.18
2023-04-09T00:25:08.554Z,8.25
2023-04-09T00:26:08.625Z,8.26
2023-04-09T00:27:08.534Z,8.22
2023-04-09T00:28:08.555Z,8.18
2023-04-09T00:29:08.518Z,8.30
2023-04-09T00:30:08.819Z,8.25
2023-04-09T00:31:08.547Z,8.29
2023-04-09T00:32:08.679Z,8.18
2023-04-09T00:33:08.497Z,8.28
2023-04-09T00:34:08.602Z,8.26
2023-04-09T00:35:08.494Z,8.32
2023-04-09T00:36:08.447Z,8.39
2023-04-09T00:37:08.433Z,8.29
2023-04-09T00:38:09.298Z,8.28
2023-04-09T00:39:08.401Z,8.17
2023-04-09T00:40:08.543Z,8.20
2023-04-09T00:41:08.463Z,8.20
2023-04-09T00:42:08.897Z,8.21
2023-04-09T00:43:08.431Z,8.15
2023-04-09T00:44:08.531Z,8.17
2023-04-09T00:45:08.430Z,8.21
2023-04-09T00:46:08.429Z,8.21
2023-04-09T00:47:08.455Z,8.29
2023-04-09T00:48:08.473Z,8.20
2023-04-09T00:49:08.388Z,8.12
2023-04-09T00:50:08.389Z,7.97
2023-04-09T00:51:08.380Z,7.78
2023-04-09T00:52:08.785Z,7.62
2023-04-09T00:53:08.345Z,7.59
2023-04-09T00:54:08.361Z,7.63
2023-04-09T00:55:08.335Z,7.49
2023-04-09T00:56:08.314Z,7.55
2023-04-09T00:57:08.373Z,7.60
2023-04-09T00:58:08.397Z,7.55
2023-04-09T00:59:08.384Z,7.63
2023-04-09T01:00:08.347Z,7.66
2023-04-09T01:01:08.440Z,7.58
2023-04-09T01:02:08.373Z,7.53
2023-04-09T01:03:08.529Z,7.47
2023-04-09T01:04:08.316Z,7.52
2023-04-09T01:05:08.610Z,7.58
2023-04-09T01:06:08.282Z,7.59
2023-04-09T01:07:08.370Z,7.62
2023-04-09T01:08:08.252Z,7.47
2023-04-09T01:09:08.224Z,7.62
2023-04-09T01:10:08.178Z,7.59
2023-04-09T01:11:08.587Z,7.69
2023-04-09T01:12:08.163Z,7.75
2023-04-09T01:13:08.161Z,7.82
2023-04-09T01:14:08.404Z,7.84
2023-04-09T01:15:08.145Z,7.84
2023-04-09T01:16:08.205Z,7.79
2023-04-09T01:17:08.211Z,7.96
2023-04-09T01:18:08.176Z,7.94
2023-04-09T01:19:31.092Z,8.02
2023-04-09T01:20:09.158Z,8.10
2023-04-09T01:21:08.494Z,7.99
2023-04-09T01:22:25.739Z,7.99
2023-04-09T01:23:08.086Z,8.11
2023-04-09T01:24:08.208Z,8.17
2023-04-09T01:25:08.226Z,8.11
2023-04-09T01:26:28.881Z,8.15
2023-04-09T01:27:09.098Z,8.20
2023-04-09T01:28:08.221Z,8.21
2023-04-09T01:29:08.153Z,8.08
2023-04-09T01:30:16.053Z,8.03
2023-04-09T01:31:08.347Z,8.08
2023-04-09T01:32:08.157Z,8.11
2023-04-09T01:33:08.010Z,7.99
2023-04-09T01:34:29.019Z,8.17
2023-04-09T01:35:28.358Z,8.18
2023-04-09T01:36:09.113Z,8.07
2023-04-09T01:37:07.997Z,8.00
2023-04-09T01:38:08.004Z,7.94
2023-04-09T01:39:12.500Z,7.92
2023-04-09T01:40:07.956Z,7.82
2023-04-09T01:41:07.999Z,7.69
2023-04-09T01:42:07.987Z,7.53
2023-04-09T01:43:07.994Z,7.55
2023-04-09T01:44:07.954Z,7.58
2023-04-09T01:45:07.963Z,7.45
2023-04-09T01:46:07.953Z,7.29
2023-04-09T01:47:11.910Z,7.26
2023-04-09T01:48:11.861Z,7.29
2023-04-09T01:49:07.980Z,7.12
2023-04-09T01:50:07.943Z,7.15
2023-04-09T01:51:34.910Z,7.13
2023-04-09T01:52:08.929Z,7.16
2023-04-09T01:53:07.883Z,7.08
2023-04-09T01:54:07.877Z,7.09
2023-04-09T01:55:07.905Z,7.05
2023-04-09T01:56:07.906Z,7.12
2023-04-09T01:57:07.922Z,7.08
2023-04-09T01:58:07.835Z,7.07
2023-04-09T01:59:26.710Z,7.09
2023-04-09T02:00:07.858Z,7.02
2023-04-09T02:01:41.843Z,7.04
2023-04-09T02:02:07.977Z,7.08
2023-04-09T02:03:08.080Z,6.99
2023-04-09T02:04:09.930Z,7.08
2023-04-09T02:05:07.785Z,7.09
2023-04-09T02:06:22.110Z,7.08
2023-04-09T02:07:07.804Z,7.05
2023-04-09T02:08:07.835Z,7.07
2023-04-09T02:09:07.812Z,7.01
2023-04-09T02:10:28.785Z,6.98
2023-04-09T02:11:07.782Z,7.01
2023-04-09T02:12:07.756Z,7.01
2023-04-09T02:13:07.743Z,6.95
2023-04-09T02:14:07.792Z,6.98
2023-04-09T02:15:07.903Z,7.05
2023-04-09T02:16:07.750Z,7.04
2023-04-09T02:17:07.708Z,7.05
2023-04-09T02:18:07.739Z,7.17
2023-04-09T02:19:08.103Z,7.19
2023-04-09T02:20:07.740Z,7.19
2023-04-09T02:21:07.712Z,7.15
2023-04-09T02:22:07.697Z,7.16
2023-04-09T02:23:07.799Z,7.22
2023-04-09T02:24:07.707Z,7.26
2023-04-09T02:25:07.722Z,7.20
2023-04-09T02:26:07.713Z,7.24
2023-04-09T02:27:07.646Z,7.31
2023-04-09T02:28:07.660Z,7.26
2023-04-09T02:29:24.106Z,7.23
2023-04-09T02:30:08.679Z,7.27
2023-04-09T02:31:07.725Z,7.22
2023-04-09T02:32:31.668Z,7.23
2023-04-09T02:33:54.902Z,7.05
2023-04-09T02:34:08.586Z,7.17
2023-04-09T02:35:07.695Z,7.19
2023-04-09T02:36:07.599Z,7.24
2023-04-09T02:37:20.262Z,7.34
2023-04-09T02:38:26.425Z,7.31
2023-04-09T02:39:07.624Z,7.29
2023-04-09T02:40:07.580Z,7.27
2023-04-09T02:41:07.639Z,7.29
2023-04-09T02:42:07.579Z,7.31
2023-04-09T02:43:07.559Z,7.29
2023-04-09T02:44:18.215Z,7.35
2023-04-09T02:45:07.564Z,7.38
2023-04-09T02:46:07.567Z,7.34
2023-04-09T02:47:07.535Z,7.41
2023-04-09T02:48:16.917Z,7.45
2023-04-09T02:49:21.980Z,7.29
2023-04-09T02:50:08.541Z,7.24
2023-04-09T02:51:07.516Z,7.16
2023-04-09T02:52:07.556Z,7.17
2023-04-09T02:53:38.180Z,7.23
2023-04-09T02:54:08.511Z,7.34
2023-04-09T02:55:07.477Z,7.38
2023-04-09T02:56:32.700Z,7.31
2023-04-09T02:57:08.506Z,7.23
2023-04-09T02:58:07.442Z,7.20
2023-04-09T02:59:07.474Z,7.26
2023-04-09T03:00:07.437Z,7.20
2023-04-09T03:01:07.453Z,7.27
2023-04-09T03:02:07.515Z,7.29
2023-04-09T03:03:07.587Z,7.34
2023-04-09T03:04:07.554Z,7.40
2023-04-09T03:05:07.385Z,7.34
2023-04-09T03:06:07.404Z,7.16
2023-04-09T03:07:07.428Z,7.16
2023-04-09T03:08:07.441Z,7.13
2023-04-09T03:09:07.435Z,7.05
2023-04-09T03:10:07.365Z,7.13
2023-04-09T03:11:21.610Z,7.04
2023-04-09T03:12:07.362Z,6.86
2023-04-09T03:13:07.362Z,6.80
2023-04-09T03:14:07.407Z,6.65
2023-04-09T03:15:07.323Z,6.68
2023-04-09T03:16:09.806Z,6.77
2023-04-09T03:17:07.349Z,6.65
2023-04-09T03:18:07.367Z,6.61
2023-04-09T03:19:41.039Z,6.66
2023-04-09T03:20:22.592Z,6.63
2023-04-09T03:21:07.304Z,6.56
2023-04-09T03:22:31.179Z,6.73
2023-04-09T03:23:08.299Z,6.73
2023-04-09T03:24:07.283Z,6.69
2023-04-09T03:25:20.857Z,6.73
2023-04-09T03:26:07.243Z,6.65
2023-04-09T03:27:07.312Z,6.72
2023-04-09T03:28:07.238Z,6.73
2023-04-09T03:29:25.916Z,6.86
2023-04-09T03:30:08.284Z,6.86
2023-04-09T03:31:07.296Z,6.91
2023-04-09T03:32:07.218Z,6.87
2023-04-09T03:33:07.210Z,6.91
2023-04-09T03:34:07.228Z,6.97
2023-04-09T03:35:07.212Z,7.08
2023-04-09T03:36:07.267Z,7.09
2023-04-09T03:37:07.199Z,7.08
2023-04-09T03:38:07.183Z,7.07
2023-04-09T03:39:07.121Z,7.15
2023-04-09T03:40:07.173Z,7.12
2023-04-09T03:41:07.210Z,7.16
2023-04-09T03:42:07.120Z,7.22
2023-04-09T03:43:07.164Z,7.26
2023-04-09T03:44:07.149Z,7.23
2023-04-09T03:45:07.132Z,7.22
2023-04-09T03:46:07.156Z,7.15
2023-04-09T03:47:07.193Z,7.04
2023-04-09T03:48:07.126Z,6.98
2023-04-09T03:49:07.152Z,6.99
2023-04-09T03:50:07.096Z,6.98
2023-04-09T03:51:07.082Z,6.90
2023-04-09T03:52:07.146Z,6.72
2023-04-09T03:53:07.044Z,6.79
2023-04-09T03:54:07.062Z,6.79
2023-04-09T03:55:07.049Z,6.90
2023-04-09T03:56:07.064Z,6.94
2023-04-09T03:57:07.041Z,6.90
2023-04-09T03:58:07.048Z,6.76
2023-04-09T03:59:07.029Z,6.86
2023-04-09T04:00:07.036Z,6.90
2023-04-09T04:01:07.024Z,6.95
2023-04-09T04:02:07.109Z,6.95
2023-04-09T04:03:07.214Z,6.86
2023-04-09T04:04:07.191Z,6.83
2023-04-09T04:05:07.025Z,6.83
2023-04-09T04:06:06.951Z,6.66
2023-04-09T04:07:06.906Z,6.56
2023-04-09T04:08:06.928Z,6.68
2023-04-09T04:09:06.957Z,6.76
2023-04-09T04:10:06.925Z,6.79
2023-04-09T04:11:06.903Z,6.76
2023-04-09T04:12:06.941Z,6.84
2023-04-09T04:13:06.931Z,6.83
2023-04-09T04:15:06.570Z,6.94
2023-04-09T04:15:07.983Z,6.98
2023-04-09T04:16:06.930Z,6.80
2023-04-09T04:17:06.903Z,6.77
2023-04-09T04:18:06.904Z,6.66
2023-04-09T04:19:06.933Z,6.71
2023-04-09T04:20:07.117Z,6.73
2023-04-09T04:21:06.930Z,6.89
2023-04-09T04:22:06.820Z,6.91
2023-04-09T04:23:06.985Z,6.98
2023-04-09T04:24:19.055Z,6.89
2023-04-09T04:25:18.270Z,6.79
2023-04-09T04:26:06.837Z,6.68
2023-04-09T04:27:06.872Z,6.76
2023-04-09T04:28:21.083Z,6.81
2023-04-09T04:29:06.801Z,6.76
2023-04-09T04:30:06.788Z,6.94
2023-04-09T04:31:06.862Z,6.91
2023-04-09T04:32:06.880Z,6.95
2023-04-09T04:33:06.783Z,6.97
2023-04-09T04:34:26.790Z,7.05
2023-04-09T04:35:24.167Z,6.95
2023-04-09T04:36:16.720Z,6.77
2023-04-09T04:37:14.640Z,6.76
2023-04-09T04:38:06.753Z,6.66
2023-04-09T04:39:06.759Z,6.66
2023-04-09T04:40:06.746Z,6.61
2023-04-09T04:41:06.763Z,6.51
2023-04-09T04:42:06.828Z,6.48
2023-04-09T04:43:06.704Z,6.50
2023-04-09T04:44:06.712Z,6.47
2023-04-09T04:45:06.682Z,6.47
2023-04-09T04:46:06.764Z,6.51
2023-04-09T04:47:06.745Z,6.58
2023-04-09T04:48:06.700Z,6.47
2023-04-09T04:49:06.705Z,6.65
2023-04-09T04:50:06.706Z,6.66
2023-04-09T04:51:06.633Z,6.56
2023-04-09T04:52:06.691Z,6.68
2023-04-09T04:53:06.715Z,6.65
2023-04-09T04:54:06.638Z,6.71
2023-04-09T04:55:06.666Z,6.62
2023-04-09T04:56:20.627Z,6.72
2023-04-09T04:57:07.720Z,6.73
2023-04-09T04:58:11.827Z,6.79
2023-04-09T04:59:06.625Z,6.59
2023-04-09T05:00:06.615Z,6.71
2023-04-09T05:01:06.649Z,6.72
2023-04-09T05:02:06.677Z,6.80
2023-04-09T05:03:06.788Z,6.69
2023-04-09T05:04:06.643Z,6.61
2023-04-09T05:05:06.561Z,6.66
2023-04-09T05:06:06.558Z,6.68
2023-04-09T05:07:06.561Z,6.63
2023-04-09T05:08:06.584Z,6.76
2023-04-09T05:09:06.591Z,6.71
2023-04-09T05:10:06.522Z,6.68
2023-04-09T05:11:06.541Z,6.86
2023-04-09T05:12:06.550Z,6.89
2023-04-09T05:13:06.506Z,6.87
2023-04-09T05:14:06.516Z,6.99
2023-04-09T05:15:06.561Z,6.89
2023-04-09T05:16:06.511Z,6.91
2023-04-09T05:17:06.476Z,6.91
2023-04-09T05:18:22.642Z,6.97
2023-04-09T05:19:06.466Z,6.97
2023-04-09T05:20:06.679Z,6.91
2023-04-09T05:21:22.433Z,6.95
2023-04-09T05:22:07.442Z,6.99
2023-04-09T05:23:06.424Z,6.97
2023-04-09T05:24:06.416Z,6.87
2023-04-09T05:25:06.423Z,6.94
2023-04-09T05:26:06.457Z,6.72
2023-04-09T05:27:06.444Z,6.76
2023-04-09T05:28:06.403Z,6.73
2023-04-09T05:29:06.422Z,6.84
2023-04-09T05:30:29.687Z,6.71
2023-04-09T05:31:07.505Z,6.71
2023-04-09T05:32:06.343Z,6.76
2023-04-09T05:33:28.204Z,6.76
2023-04-09T05:34:07.364Z,6.84
2023-04-09T05:35:06.382Z,6.99
2023-04-09T05:36:06.400Z,6.86
2023-04-09T05:37:06.400Z,6.90
2023-04-09T05:38:06.392Z,6.91
2023-04-09T05:39:06.320Z,6.91
2023-04-09T05:40:06.349Z,6.91
2023-04-09T05:41:06.342Z,6.91
2023-04-09T05:42:06.394Z,6.98
2023-04-09T05:43:06.330Z,6.98
2023-04-09T05:44:06.290Z,6.98
2023-04-09T05:45:06.310Z,6.98
2023-04-09T05:46:06.279Z,6.90
2023-04-09T05:47:06.291Z,6.98
2023-04-09T05:48:06.322Z,6.86
2023-04-09T05:49:06.283Z,6.84
2023-04-09T05:50:06.294Z,6.83
2023-04-09T05:51:06.236Z,6.73
2023-04-09T05:52:06.302Z,6.71
2023-04-09T05:53:06.321Z,6.98
2023-04-09T05:54:06.274Z,6.89
2023-04-09T05:55:06.200Z,6.83
2023-04-09T05:56:06.232Z,6.99
2023-04-09T05:57:06.225Z,7.05
2023-04-09T05:58:06.165Z,7.08
2023-04-09T05:59:06.250Z,7.12
2023-04-09T06:00:06.205Z,7.05
2023-04-09T06:01:07.184Z,7.08
2023-04-09T06:02:06.369Z,7.05
2023-04-09T06:03:06.264Z,7.24
2023-04-09T06:04:06.439Z,7.34
2023-04-09T06:05:06.165Z,7.42
2023-04-09T06:06:06.184Z,7.55
2023-04-09T06:07:06.121Z,7.52
2023-04-09T06:08:06.134Z,7.49
2023-04-09T06:09:06.146Z,7.52
2023-04-09T06:10:06.167Z,7.63
2023-04-09T06:11:06.098Z,7.71
2023-04-09T06:12:06.087Z,7.60
2023-04-09T06:13:06.092Z,7.63
2023-04-09T06:14:06.116Z,7.67
2023-04-09T06:15:06.142Z,7.74
2023-04-09T06:16:06.122Z,7.77
2023-04-09T06:17:06.083Z,7.78
2023-04-09T06:18:06.202Z,7.79
2023-04-09T06:19:06.108Z,7.82
2023-04-09T06:20:06.056Z,7.96
2023-04-09T06:21:06.286Z,7.87
2023-04-09T06:22:06.070Z,7.79
2023-04-09T06:23:06.104Z,7.72
2023-04-09T06:24:06.070Z,7.96
2023-04-09T06:25:06.033Z,7.87
2023-04-09T06:26:06.082Z,8.02
2023-04-09T06:27:06.004Z,8.00
2023-04-09T06:28:05.982Z,8.10
2023-04-09T06:29:06.008Z,7.97
2023-04-09T06:30:05.990Z,7.96
2023-04-09T06:31:05.979Z,8.04
2023-04-09T06:32:06.033Z,8.18
2023-04-09T06:33:05.984Z,8.00
2023-04-09T06:34:05.907Z,8.20
2023-04-09T06:35:05.962Z,8.28
2023-04-09T06:36:06.004Z,8.25
2023-04-09T06:37:05.986Z,8.26
2023-04-09T06:38:05.915Z,8.08
2023-04-09T06:39:05.960Z,8.20
2023-04-09T06:40:05.920Z,8.26
2023-04-09T06:41:05.944Z,8.21
2023-04-09T06:42:05.917Z,8.25
2023-04-09T06:43:05.922Z,8.22
2023-04-09T06:44:05.908Z,8.21
2023-04-09T06:45:05.927Z,8.20
2023-04-09T06:46:05.990Z,8.25
2023-04-09T06:47:05.904Z,8.03
2023-04-09T06:48:05.955Z,8.18
2023-04-09T06:49:05.913Z,8.11
2023-04-09T06:50:05.828Z,8.20
2023-04-09T06:51:05.857Z,8.11
2023-04-09T06:52:05.880Z,8.26
2023-04-09T06:53:05.865Z,8.26
2023-04-09T06:54:05.867Z,8.32
2023-04-09T06:55:05.814Z,8.40
2023-04-09T06:56:05.788Z,8.48
2023-04-09T06:57:05.820Z,8.57
2023-04-09T06:58:05.794Z,8.72
2023-04-09T06:59:05.907Z,8.87
2023-04-09T07:00:05.764Z,8.73
2023-04-09T07:01:05.759Z,8.58
2023-04-09T07:02:05.835Z,8.47
2023-04-09T07:03:05.926Z,8.57
2023-04-09T07:04:05.963Z,8.62
2023-04-09T07:05:05.797Z,8.57
2023-04-09T07:06:05.748Z,8.62
2023-04-09T07:07:05.745Z,8.71
2023-04-09T07:08:06.721Z,8.76
2023-04-09T07:09:05.823Z,8.78
2023-04-09T07:10:05.728Z,8.87
2023-04-09T07:11:05.746Z,8.86
2023-04-09T07:12:05.686Z,8.99
2023-04-09T07:13:05.688Z,9.01
2023-04-09T07:14:05.703Z,9.05
2023-04-09T07:15:05.762Z,9.23
2023-04-09T07:16:05.741Z,9.38
2023-04-09T07:17:05.662Z,9.34
2023-04-09T07:18:05.698Z,9.53
2023-04-09T07:19:05.639Z,9.58
2023-04-09T07:20:05.661Z,9.64
2023-04-09T07:21:05.866Z,9.64
2023-04-09T07:22:05.660Z,9.75
2023-04-09T07:23:05.631Z,9.79
2023-04-09T07:24:05.642Z,9.82
2023-04-09T07:25:05.600Z,10.07
2023-04-09T07:26:05.611Z,10.06
2023-04-09T07:27:05.686Z,10.14
2023-04-09T07:28:05.610Z,10.18
2023-04-09T07:29:05.577Z,10.14
2023-04-09T07:30:05.636Z,10.32
2023-04-09T07:31:05.643Z,10.39
2023-04-09T07:32:05.627Z,10.36
2023-04-09T07:33:05.625Z,10.37
2023-04-09T07:34:05.565Z,10.43
2023-04-09T07:35:05.544Z,10.56
2023-04-09T07:36:05.571Z,10.53
2023-04-09T07:37:05.560Z,10.53
2023-04-09T07:38:05.593Z,10.65
2023-04-09T07:39:05.508Z,10.71
2023-04-09T07:40:05.500Z,10.74
2023-04-09T07:41:05.780Z,10.81
2023-04-09T07:42:05.509Z,10.63
2023-04-09T07:43:05.518Z,10.56
2023-04-09T07:44:05.463Z,10.62
2023-04-09T07:45:05.443Z,10.60
2023-04-09T07:46:05.444Z,10.66
2023-04-09T07:47:05.549Z,10.73
2023-04-09T07:48:05.583Z,10.58
2023-04-09T07:49:05.509Z,10.65
2023-04-09T07:50:05.460Z,10.66
2023-04-09T07:51:05.426Z,10.76
2023-04-09T07:52:05.453Z,10.77
2023-04-09T07:53:05.402Z,10.65
2023-04-09T07:54:05.447Z,10.52
2023-04-09T07:55:05.399Z,10.55
2023-04-09T07:56:05.405Z,10.59
2023-04-09T07:57:05.418Z,10.68
2023-04-09T07:58:05.368Z,10.76
2023-04-09T07:59:05.389Z,10.86
2023-04-09T08:00:05.448Z,10.77
2023-04-09T08:01:05.562Z,10.77
2023-04-09T08:02:05.377Z,10.84
2023-04-09T08:03:05.493Z,10.77
2023-04-09T08:04:05.495Z,10.74
2023-04-09T08:05:05.427Z,10.65
2023-04-09T08:06:05.318Z,10.78
2023-04-09T08:07:05.326Z,10.98
2023-04-09T08:08:05.352Z,10.92
2023-04-09T08:09:05.308Z,10.88
2023-04-09T08:10:05.338Z,10.99
2023-04-09T08:11:05.337Z,11.03
2023-04-09T08:12:05.283Z,11.10
2023-04-09T08:13:10.164Z,11.09
2023-04-09T08:14:06.348Z,10.91
2023-04-09T08:15:05.241Z,11.07
2023-04-09T08:16:05.317Z,11.03
2023-04-09T08:17:05.303Z,11.21
2023-04-09T08:18:05.280Z,11.35
2023-04-09T08:19:05.243Z,11.43
2023-04-09T08:20:05.240Z,11.46
2023-04-09T08:21:05.210Z,11.38
2023-04-09T08:22:05.729Z,11.59
2023-04-09T08:23:05.214Z,11.70
2023-04-09T08:24:05.228Z,11.67
2023-04-09T08:25:05.260Z,11.75
2023-04-09T08:26:05.191Z,11.90
2023-04-09T08:27:05.351Z,11.96
2023-04-09T08:28:05.270Z,11.99
2023-04-09T08:29:05.189Z,12.01
2023-04-09T08:30:05.154Z,12.02
2023-04-09T08:31:05.182Z,12.06
2023-04-09T08:32:05.231Z,11.93
2023-04-09T08:33:05.222Z,11.78
2023-04-09T08:34:05.166Z,11.78
2023-04-09T08:35:05.155Z,11.85
2023-04-09T08:36:05.187Z,11.86
2023-04-09T08:37:05.145Z,11.93
2023-04-09T08:38:05.176Z,11.96
2023-04-09T08:39:05.101Z,12.02
2023-04-09T08:40:05.126Z,12.06
2023-04-09T08:41:05.141Z,11.99
2023-04-09T08:42:05.139Z,12.01
2023-04-09T08:43:05.069Z,12.01
2023-04-09T08:44:05.105Z,11.75
2023-04-09T08:45:05.070Z,11.68
2023-04-09T08:46:05.206Z,11.61
2023-04-09T08:47:05.096Z,11.57
2023-04-09T08:48:05.209Z,11.74
2023-04-09T08:49:05.095Z,11.77
2023-04-09T08:50:05.057Z,11.85
2023-04-09T08:51:05.111Z,11.86
2023-04-09T08:52:05.870Z,11.94
2023-04-09T08:53:07.645Z,12.06
2023-04-09T08:54:06.122Z,12.21
2023-04-09T08:55:05.047Z,12.34
2023-04-09T08:56:04.966Z,12.06
2023-04-09T08:57:05.064Z,12.30
2023-04-09T08:58:04.987Z,12.33
2023-04-09T08:59:04.977Z,12.33
2023-04-09T09:00:05.030Z,12.39
2023-04-09T09:01:04.972Z,12.41
2023-04-09T09:02:05.013Z,12.64
2023-04-09T09:03:05.190Z,12.59
2023-04-09T09:04:04.985Z,12.64
2023-04-09T09:05:04.971Z,12.74
2023-04-09T09:06:04.903Z,12.88
2023-04-09T09:07:04.897Z,12.89
2023-04-09T09:08:04.959Z,13.07
2023-04-09T09:09:04.865Z,13.17
2023-04-09T09:10:04.870Z,13.18
2023-04-09T09:11:04.947Z,13.15
2023-04-09T09:12:04.828Z,13.03
2023-04-09T09:13:04.855Z,13.09
2023-04-09T09:14:04.823Z,12.99
2023-04-09T09:15:04.904Z,12.96
2023-04-09T09:16:04.871Z,12.89
2023-04-09T09:17:04.928Z,12.85
2023-04-09T09:18:04.860Z,12.82
2023-04-09T09:19:04.791Z,13.00
2023-04-09T09:20:04.937Z,12.93
2023-04-09T09:21:04.873Z,12.99
2023-04-09T09:22:04.917Z,12.85
2023-04-09T09:23:04.781Z,13.12
2023-04-09T09:24:04.840Z,13.11
2023-04-09T09:25:05.143Z,13.29
2023-04-09T09:26:04.864Z,13.27
2023-04-09T09:27:04.983Z,13.15
2023-04-09T09:28:04.840Z,13.04
2023-04-09T09:29:04.726Z,12.99
2023-04-09T09:30:04.785Z,13.02
2023-04-09T09:31:04.798Z,13.15
2023-04-09T09:32:04.767Z,13.20
2023-04-09T09:33:04.779Z,13.33
2023-04-09T09:34:04.750Z,13.38
2023-04-09T09:35:04.775Z,13.37
2023-04-09T09:36:04.751Z,12.87
2023-04-09T09:37:05.075Z,12.51
2023-04-09T09:38:04.848Z,12.46
2023-04-09T09:39:05.002Z,12.63
2023-04-09T09:40:04.710Z,12.75
2023-04-09T09:41:05.084Z,12.88
2023-04-09T09:42:04.785Z,12.95
2023-04-09T09:43:05.241Z,13.00
2023-04-09T09:44:04.960Z,13.03
2023-04-09T09:45:05.670Z,13.20
2023-04-09T09:46:04.627Z,13.20
2023-04-09T09:47:04.716Z,13.21
2023-04-09T09:48:04.732Z,13.30
2023-04-09T09:49:04.653Z,13.41
2023-04-09T09:50:04.720Z,13.46
2023-04-09T09:51:04.591Z,13.47
2023-04-09T09:52:04.590Z,13.52
2023-04-09T09:53:04.589Z,13.37
2023-04-09T09:54:04.608Z,13.47
2023-04-09T09:55:04.550Z,13.33
2023-04-09T09:56:04.549Z,13.27
2023-04-09T09:57:04.602Z,13.40
2023-04-09T09:58:04.583Z,13.49
2023-04-09T09:59:04.729Z,13.58
2023-04-09T10:00:05.230Z,13.62
2023-04-09T10:01:04.774Z,13.63
2023-04-09T10:02:04.833Z,13.71
2023-04-09T10:03:04.637Z,13.76
2023-04-09T10:04:04.599Z,13.70
2023-04-09T10:05:04.540Z,13.88
2023-04-09T10:06:04.796Z,13.95
2023-04-09T10:07:04.771Z,14.06
2023-04-09T10:08:04.640Z,14.06
2023-04-09T10:09:04.564Z,14.09
2023-04-09T10:10:04.544Z,13.80
2023-04-09T10:11:04.558Z,13.46
2023-04-09T10:12:04.554Z,13.25
2023-04-09T10:13:04.485Z,13.09
2023-04-09T10:14:04.425Z,13.20
2023-04-09T10:15:04.396Z,13.22
2023-04-09T10:16:04.660Z,13.33
2023-04-09T10:17:04.442Z,13.43
2023-04-09T10:18:04.490Z,13.46
2023-04-09T10:19:04.441Z,13.58
2023-04-09T10:20:04.662Z,13.70
2023-04-09T10:21:04.485Z,13.76
2023-04-09T10:22:04.764Z,13.92
2023-04-09T10:23:04.351Z,13.99
2023-04-09T10:24:04.412Z,14.06
2023-04-09T10:25:04.337Z,13.95
2023-04-09T10:26:04.528Z,13.96
2023-04-09T10:27:04.793Z,13.98
2023-04-09T10:28:04.382Z,13.91
2023-04-09T10:29:04.338Z,13.59
2023-04-09T10:30:04.538Z,13.44
2023-04-09T10:31:04.495Z,13.03
2023-04-09T10:32:04.662Z,12.69
2023-04-09T10:33:04.414Z,12.71
2023-04-09T10:34:04.432Z,12.49
2023-04-09T10:35:04.321Z,12.27
2023-04-09T10:36:04.321Z,12.24
2023-04-09T10:37:04.384Z,12.49
2023-04-09T10:38:04.307Z,12.46
2023-04-09T10:39:04.815Z,12.37
2023-04-09T10:40:04.544Z,12.19
2023-04-09T10:41:04.789Z,12.02
2023-04-09T10:42:04.843Z,11.93
2023-04-09T10:43:05.040Z,11.85
2023-04-09T10:44:04.684Z,11.77
2023-04-09T10:45:04.545Z,11.75
2023-04-09T10:46:04.474Z,11.68
2023-04-09T10:47:17.829Z,11.61
2023-04-09T10:48:05.379Z,11.78
2023-04-09T10:49:04.787Z,11.82
2023-04-09T10:50:04.513Z,11.78
2023-04-09T10:51:05.829Z,11.75
2023-04-09T10:52:04.560Z,11.74
2023-04-09T10:53:04.904Z,11.72
2023-04-09T10:54:04.514Z,11.71
2023-04-09T10:55:04.644Z,11.70
2023-04-09T10:56:04.743Z,11.80
2023-04-09T10:57:04.715Z,11.78
2023-04-09T10:58:04.671Z,11.90
2023-04-09T10:59:04.955Z,11.94
2023-04-09T11:00:04.550Z,12.02
2023-04-09T11:01:04.512Z,12.09
2023-04-09T11:02:04.298Z,12.01
2023-04-09T11:03:04.317Z,11.90
2023-04-09T11:04:04.510Z,12.04
2023-04-09T11:05:04.589Z,12.04
2023-04-09T11:06:04.448Z,12.06
2023-04-09T11:07:04.489Z,11.93
2023-04-09T11:08:04.367Z,12.05
2023-04-09T11:09:04.501Z,12.27
2023-04-09T11:10:05.788Z,12.42
2023-04-09T11:11:04.580Z,12.52
2023-04-09T11:12:04.569Z,12.51
2023-04-09T11:13:05.388Z,12.66
2023-04-09T11:14:04.366Z,12.75
2023-04-09T11:15:04.386Z,12.79
2023-04-09T11:16:04.625Z,12.84
2023-04-09T11:17:04.387Z,12.85
2023-04-09T11:18:04.200Z,12.92
2023-04-09T11:19:04.007Z,13.03
2023-04-09T11:20:04.122Z,13.15
2023-04-09T11:21:04.455Z,13.25
2023-04-09T11:22:04.021Z,13.44
2023-04-09T11:23:04.194Z,13.47
2023-04-09T11:24:04.504Z,13.55
2023-04-09T11:25:04.093Z,13.46
2023-04-09T11:26:04.135Z,13.76
2023-04-09T11:27:04.231Z,14.13
2023-04-09T11:28:04.512Z,14.14
2023-04-09T11:29:04.226Z,14.39
2023-04-09T11:30:04.504Z,14.32
2023-04-09T11:31:04.233Z,14.34
2023-04-09T11:32:04.875Z,14.07
2023-04-09T11:33:04.510Z,13.99
2023-04-09T11:34:04.227Z,13.81
2023-04-09T11:35:04.346Z,13.65
2023-04-09T11:36:04.158Z,13.55
2023-04-09T11:37:03.921Z,13.67
2023-04-09T11:38:03.987Z,13.96
2023-04-09T11:39:04.514Z,14.31
2023-04-09T11:40:04.366Z,14.50
2023-04-09T11:41:04.521Z,14.49
2023-04-09T11:42:04.370Z,14.64
2023-04-09T11:43:04.484Z,14.61
2023-04-09T11:44:04.302Z,14.20
2023-04-09T11:45:04.350Z,13.98
2023-04-09T11:46:04.323Z,13.80
2023-04-09T11:47:04.470Z,13.76
2023-04-09T11:48:04.008Z,13.79
2023-04-09T11:49:04.572Z,13.88
2023-04-09T11:50:04.102Z,13.76
2023-04-09T11:51:03.896Z,13.89
2023-04-09T11:52:03.989Z,14.09
2023-04-09T11:53:04.360Z,14.49
2023-04-09T11:54:04.143Z,14.78
2023-04-09T11:55:04.393Z,15.19
2023-04-09T11:56:04.309Z,15.48
2023-04-09T11:57:04.359Z,15.72
2023-04-09T11:58:04.197Z,16.00
2023-04-09T11:59:04.466Z,16.18
2023-04-09T12:00:05.315Z,16.25
2023-04-09T12:01:05.265Z,16.33
2023-04-09T12:02:04.377Z,16.63
2023-04-09T12:03:04.402Z,16.73
2023-04-09T12:04:04.221Z,16.90
2023-04-09T12:05:04.518Z,17.00
2023-04-09T12:06:04.272Z,16.88
2023-04-09T12:07:04.313Z,16.50
2023-04-09T12:08:04.198Z,16.80
2023-04-09T12:09:04.146Z,16.83
2023-04-09T12:10:04.610Z,16.63
2023-04-09T12:11:04.180Z,16.20
2023-04-09T12:12:04.085Z,15.89
2023-04-09T12:13:05.140Z,15.75
2023-04-09T12:14:04.224Z,15.49
2023-04-09T12:15:04.181Z,15.38
2023-04-09T12:16:04.520Z,15.42
2023-04-09T12:17:03.972Z,15.45
2023-04-09T12:18:04.385Z,15.64
2023-04-09T12:19:04.099Z,15.81
2023-04-09T12:20:04.064Z,16.03
2023-04-09T12:21:04.066Z,16.01
2023-04-09T12:22:04.262Z,16.16
2023-04-09T12:23:03.870Z,16.12
2023-04-09T12:24:03.752Z,16.30
2023-04-09T12:25:03.747Z,16.27
2023-04-09T12:26:03.997Z,16.48
2023-04-09T12:27:04.123Z,16.63
2023-04-09T12:28:03.671Z,16.73
2023-04-09T12:29:03.628Z,16.38
2023-04-09T12:30:04.113Z,15.86
2023-04-09T12:31:04.024Z,15.43
2023-04-09T12:32:04.119Z,15.54
2023-04-09T12:33:04.254Z,15.84
2023-04-09T12:34:04.081Z,16.20
2023-04-09T12:35:04.140Z,16.03
2023-04-09T12:36:04.040Z,15.96
2023-04-09T12:37:03.986Z,16.31
2023-04-09T12:38:04.022Z,16.48
2023-04-09T12:39:03.993Z,16.70
2023-04-09T12:40:04.154Z,16.89
2023-04-09T12:41:03.900Z,17.03
2023-04-09T12:42:03.965Z,17.14
2023-04-09T12:43:04.062Z,17.26
2023-04-09T12:44:03.977Z,17.32
2023-04-09T12:45:04.026Z,17.35
2023-04-09T12:46:04.050Z,17.06
2023-04-09T12:47:03.784Z,16.88
2023-04-09T12:48:04.156Z,16.90
2023-04-09T12:49:04.238Z,17.08
2023-04-09T12:50:03.742Z,17.11
2023-04-09T12:51:03.863Z,16.92
2023-04-09T12:52:03.823Z,17.06
2023-04-09T12:53:03.959Z,16.90
2023-04-09T12:54:04.183Z,16.95
2023-04-09T12:55:03.794Z,17.00
2023-04-09T12:56:03.823Z,17.18
2023-04-09T12:57:03.473Z,17.10
2023-04-09T12:58:03.598Z,17.04
2023-04-09T12:59:03.902Z,17.08
2023-04-09T13:00:04.186Z,16.33
2023-04-09T13:01:03.991Z,16.06
2023-04-09T13:02:04.075Z,15.92
2023-04-09T13:03:03.810Z,16.06
2023-04-09T13:04:03.606Z,15.94
2023-04-09T13:05:04.074Z,15.75
2023-04-09T13:06:03.843Z,15.78
2023-04-09T13:07:03.864Z,16.20